sensor_id;sensor_type;location;lat;lon;timestamp;P1;durP1;ratioP1;P2;durP2;ratioP2
15340;SDS011;7770;52.158;5.372;2022-09-21T00:01:52;9.73;;;5.00;;
15340;SDS011;7770;52.158;5.372;2022-09-21T00:04:39;9.80;;;5.73;;
15340;SDS011;7770;52.158;5.372;2022-09-21T00:07:25;9.00;;;5.33;;
15340;SDS011;7770;52.158;5.372;2022-09-21T00:10:11;7.13;;;5.43;;
15340;SDS011;7770;52.158;5.372;2022-09-21T00:12:57;7.03;;;5.07;;
15340;SDS011;7770;52.158;5.372;2022-09-21T00:15:47;8.83;;;5.80;;
15340;SDS011;7770;52.158;5.372;2022-09-21T00:18:33;7.87;;;5.00;;
15340;SDS011;7770;52.158;5.372;2022-09-21T00:21:20;8.23;;;5.63;;
15340;SDS011;7770;52.158;5.372;2022-09-21T00:24:08;8.50;;;4.93;;
15340;SDS011;7770;52.158;5.372;2022-09-21T00:26:54;11.03;;;4.93;;
15340;SDS011;7770;52.158;5.372;2022-09-21T00:29:40;6.60;;;5.10;;
15340;SDS011;7770;52.158;5.372;2022-09-21T00:32:26;10.20;;;4.83;;
15340;SDS011;7770;52.158;5.372;2022-09-21T00:35:15;7.07;;;4.53;;
15340;SDS011;7770;52.158;5.372;2022-09-21T00:38:02;6.77;;;4.63;;
15340;SDS011;7770;52.158;5.372;2022-09-21T00:40:48;6.90;;;4.70;;
15340;SDS011;7770;52.158;5.372;2022-09-21T00:43:48;9.23;;;5.00;;
15340;SDS011;7770;52.158;5.372;2022-09-21T00:47:24;10.07;;;4.97;;
15340;SDS011;7770;52.158;5.372;2022-09-21T00:50:15;9.03;;;4.67;;
15340;SDS011;7770;52.158;5.372;2022-09-21T00:53:05;7.17;;;4.87;;
15340;SDS011;7770;52.158;5.372;2022-09-21T00:55:52;7.57;;;5.20;;
15340;SDS011;7770;52.158;5.372;2022-09-21T00:58:43;7.17;;;4.63;;
15340;SDS011;7770;52.158;5.372;2022-09-21T01:01:34;8.57;;;4.83;;
15340;SDS011;7770;52.158;5.372;2022-09-21T01:04:22;7.60;;;5.57;;
15340;SDS011;7770;52.158;5.372;2022-09-21T01:07:12;8.27;;;5.33;;
15340;SDS011;7770;52.158;5.372;2022-09-21T01:10:07;9.23;;;5.67;;
15340;SDS011;7770;52.158;5.372;2022-09-21T01:25:58;6.90;;;5.47;;
15340;SDS011;7770;52.158;5.372;2022-09-21T01:32:33;6.80;;;5.60;;
15340;SDS011;7770;52.158;5.372;2022-09-21T01:35:23;9.23;;;5.23;;
15340;SDS011;7770;52.158;5.372;2022-09-21T01:38:18;6.43;;;5.30;;
15340;SDS011;7770;52.158;5.372;2022-09-21T01:41:11;10.43;;;5.23;;
15340;SDS011;7770;52.158;5.372;2022-09-21T01:44:08;8.27;;;5.97;;
15340;SDS011;7770;52.158;5.372;2022-09-21T01:47:01;7.03;;;5.30;;
15340;SDS011;7770;52.158;5.372;2022-09-21T01:49:49;9.97;;;5.43;;
15340;SDS011;7770;52.158;5.372;2022-09-21T01:52:45;7.93;;;5.50;;
15340;SDS011;7770;52.158;5.372;2022-09-21T01:56:20;8.00;;;5.33;;
15340;SDS011;7770;52.158;5.372;2022-09-21T02:05:56;6.90;;;5.83;;
15340;SDS011;7770;52.158;5.372;2022-09-21T02:08:43;10.53;;;5.97;;
15340;SDS011;7770;52.158;5.372;2022-09-21T02:11:30;10.37;;;6.00;;
15340;SDS011;7770;52.158;5.372;2022-09-21T02:14:19;13.13;;;6.03;;
15340;SDS011;7770;52.158;5.372;2022-09-21T02:20:31;8.60;;;5.97;;
15340;SDS011;7770;52.158;5.372;2022-09-21T02:23:23;7.50;;;5.43;;
15340;SDS011;7770;52.158;5.372;2022-09-21T02:26:28;7.13;;;5.50;;
15340;SDS011;7770;52.158;5.372;2022-09-21T02:29:23;8.23;;;5.70;;
15340;SDS011;7770;52.158;5.372;2022-09-21T02:32:22;8.87;;;6.00;;
15340;SDS011;7770;52.158;5.372;2022-09-21T02:35:20;7.50;;;5.93;;
15340;SDS011;7770;52.158;5.372;2022-09-21T02:38:37;7.97;;;6.10;;
15340;SDS011;7770;52.158;5.372;2022-09-21T02:41:27;8.27;;;6.00;;
15340;SDS011;7770;52.158;5.372;2022-09-21T02:44:30;7.37;;;5.60;;
15340;SDS011;7770;52.158;5.372;2022-09-21T02:47:41;7.00;;;5.47;;
15340;SDS011;7770;52.158;5.372;2022-09-21T02:50:45;9.67;;;5.70;;
15340;SDS011;7770;52.158;5.372;2022-09-21T02:53:35;7.70;;;5.60;;
15340;SDS011;7770;52.158;5.372;2022-09-21T02:56:23;8.47;;;5.63;;
15340;SDS011;7770;52.158;5.372;2022-09-21T02:59:10;8.37;;;5.90;;
15340;SDS011;7770;52.158;5.372;2022-09-21T03:01:56;9.10;;;5.83;;
15340;SDS011;7770;52.158;5.372;2022-09-21T03:04:44;6.73;;;5.30;;
15340;SDS011;7770;52.158;5.372;2022-09-21T03:07:32;9.20;;;5.43;;
15340;SDS011;7770;52.158;5.372;2022-09-21T03:10:18;10.27;;;5.97;;
15340;SDS011;7770;52.158;5.372;2022-09-21T03:13:05;10.77;;;5.57;;
15340;SDS011;7770;52.158;5.372;2022-09-21T03:16:03;5.67;;;5.00;;
15340;SDS011;7770;52.158;5.372;2022-09-21T03:18:51;6.90;;;5.47;;
15340;SDS011;7770;52.158;5.372;2022-09-21T03:21:37;8.33;;;5.60;;
15340;SDS011;7770;52.158;5.372;2022-09-21T03:24:23;10.40;;;5.20;;
15340;SDS011;7770;52.158;5.372;2022-09-21T03:27:27;9.10;;;5.63;;
15340;SDS011;7770;52.158;5.372;2022-09-21T03:30:13;6.53;;;4.70;;
15340;SDS011;7770;52.158;5.372;2022-09-21T03:32:59;9.27;;;5.00;;
15340;SDS011;7770;52.158;5.372;2022-09-21T03:35:48;6.27;;;5.10;;
15340;SDS011;7770;52.158;5.372;2022-09-21T03:38:36;5.43;;;4.80;;
15340;SDS011;7770;52.158;5.372;2022-09-21T03:41:22;6.77;;;4.73;;
15340;SDS011;7770;52.158;5.372;2022-09-21T03:44:08;6.70;;;4.70;;
15340;SDS011;7770;52.158;5.372;2022-09-21T03:46:54;6.93;;;5.40;;
15340;SDS011;7770;52.158;5.372;2022-09-21T03:49:42;8.57;;;5.10;;
15340;SDS011;7770;52.158;5.372;2022-09-21T03:52:28;5.87;;;4.80;;
15340;SDS011;7770;52.158;5.372;2022-09-21T03:55:14;7.40;;;4.53;;
15340;SDS011;7770;52.158;5.372;2022-09-21T03:58:00;6.10;;;4.80;;
15340;SDS011;7770;52.158;5.372;2022-09-21T04:00:46;11.20;;;4.70;;
15340;SDS011;7770;52.158;5.372;2022-09-21T04:03:32;9.73;;;4.73;;
15340;SDS011;7770;52.158;5.372;2022-09-21T04:06:19;7.17;;;4.47;;
15340;SDS011;7770;52.158;5.372;2022-09-21T04:09:05;5.90;;;4.47;;
15340;SDS011;7770;52.158;5.372;2022-09-21T04:11:52;9.93;;;5.03;;
15340;SDS011;7770;52.158;5.372;2022-09-21T04:14:38;5.87;;;4.67;;
15340;SDS011;7770;52.158;5.372;2022-09-21T04:17:24;7.40;;;5.03;;
15340;SDS011;7770;52.158;5.372;2022-09-21T04:20:10;5.70;;;4.77;;
15340;SDS011;7770;52.158;5.372;2022-09-21T04:22:56;8.00;;;5.10;;
15340;SDS011;7770;52.158;5.372;2022-09-21T04:25:43;6.23;;;4.60;;
15340;SDS011;7770;52.158;5.372;2022-09-21T04:28:31;6.77;;;4.93;;
15340;SDS011;7770;52.158;5.372;2022-09-21T04:31:17;9.57;;;5.20;;
15340;SDS011;7770;52.158;5.372;2022-09-21T04:34:04;7.17;;;4.97;;
15340;SDS011;7770;52.158;5.372;2022-09-21T04:36:50;8.43;;;5.23;;
15340;SDS011;7770;52.158;5.372;2022-09-21T04:39:38;9.97;;;5.60;;
15340;SDS011;7770;52.158;5.372;2022-09-21T04:42:24;8.53;;;6.07;;
15340;SDS011;7770;52.158;5.372;2022-09-21T04:45:11;9.53;;;6.47;;
15340;SDS011;7770;52.158;5.372;2022-09-21T04:47:58;8.47;;;6.43;;
15340;SDS011;7770;52.158;5.372;2022-09-21T04:50:47;9.03;;;6.37;;
15340;SDS011;7770;52.158;5.372;2022-09-21T04:53:34;8.63;;;5.77;;
15340;SDS011;7770;52.158;5.372;2022-09-21T04:56:22;6.77;;;6.03;;
15340;SDS011;7770;52.158;5.372;2022-09-21T04:59:08;8.97;;;5.47;;
15340;SDS011;7770;52.158;5.372;2022-09-21T05:01:55;6.37;;;5.20;;
15340;SDS011;7770;52.158;5.372;2022-09-21T05:04:40;8.10;;;4.90;;
15340;SDS011;7770;52.158;5.372;2022-09-21T05:07:26;6.87;;;4.87;;
15340;SDS011;7770;52.158;5.372;2022-09-21T05:10:12;7.00;;;5.17;;
15340;SDS011;7770;52.158;5.372;2022-09-21T05:12:59;8.10;;;5.90;;
15340;SDS011;7770;52.158;5.372;2022-09-21T05:15:45;7.47;;;5.57;;
15340;SDS011;7770;52.158;5.372;2022-09-21T05:18:31;10.43;;;5.97;;
15340;SDS011;7770;52.158;5.372;2022-09-21T05:21:17;8.47;;;5.00;;
15340;SDS011;7770;52.158;5.372;2022-09-21T05:24:03;7.20;;;5.20;;
15340;SDS011;7770;52.158;5.372;2022-09-21T05:26:49;7.67;;;5.73;;
15340;SDS011;7770;52.158;5.372;2022-09-21T05:29:35;7.83;;;5.67;;
15340;SDS011;7770;52.158;5.372;2022-09-21T05:32:23;9.33;;;5.43;;
15340;SDS011;7770;52.158;5.372;2022-09-21T05:38:27;6.97;;;5.20;;
15340;SDS011;7770;52.158;5.372;2022-09-21T05:41:14;7.47;;;5.73;;
15340;SDS011;7770;52.158;5.372;2022-09-21T05:44:00;6.47;;;5.33;;
15340;SDS011;7770;52.158;5.372;2022-09-21T05:47:01;6.53;;;5.70;;
15340;SDS011;7770;52.158;5.372;2022-09-21T06:00:10;9.57;;;6.23;;
15340;SDS011;7770;52.158;5.372;2022-09-21T06:05:58;8.30;;;6.40;;
15340;SDS011;7770;52.158;5.372;2022-09-21T06:08:44;7.77;;;6.50;;
15340;SDS011;7770;52.158;5.372;2022-09-21T06:11:31;9.67;;;6.90;;
15340;SDS011;7770;52.158;5.372;2022-09-21T06:14:17;8.67;;;6.50;;
15340;SDS011;7770;52.158;5.372;2022-09-21T06:17:08;10.50;;;7.17;;
15340;SDS011;7770;52.158;5.372;2022-09-21T06:19:54;11.73;;;6.73;;
15340;SDS011;7770;52.158;5.372;2022-09-21T06:22:40;9.20;;;6.97;;
15340;SDS011;7770;52.158;5.372;2022-09-21T06:25:26;8.73;;;7.57;;
15340;SDS011;7770;52.158;5.372;2022-09-21T06:28:12;9.73;;;7.33;;
15340;SDS011;7770;52.158;5.372;2022-09-21T06:30:58;10.13;;;7.13;;
15340;SDS011;7770;52.158;5.372;2022-09-21T06:33:44;9.63;;;7.43;;
15340;SDS011;7770;52.158;5.372;2022-09-21T06:36:31;9.03;;;7.20;;
15340;SDS011;7770;52.158;5.372;2022-09-21T06:39:17;10.53;;;7.60;;
15340;SDS011;7770;52.158;5.372;2022-09-21T06:42:03;12.93;;;7.30;;
15340;SDS011;7770;52.158;5.372;2022-09-21T06:44:49;8.60;;;6.70;;
15340;SDS011;7770;52.158;5.372;2022-09-21T06:47:35;12.67;;;7.23;;
15340;SDS011;7770;52.158;5.372;2022-09-21T06:50:21;13.03;;;7.33;;
15340;SDS011;7770;52.158;5.372;2022-09-21T06:53:07;8.93;;;6.70;;
15340;SDS011;7770;52.158;5.372;2022-09-21T06:55:53;10.13;;;7.17;;
15340;SDS011;7770;52.158;5.372;2022-09-21T06:58:45;10.27;;;6.80;;
15340;SDS011;7770;52.158;5.372;2022-09-21T07:01:32;9.13;;;6.57;;
15340;SDS011;7770;52.158;5.372;2022-09-21T07:04:18;11.43;;;6.23;;
15340;SDS011;7770;52.158;5.372;2022-09-21T07:07:05;10.73;;;5.87;;
15340;SDS011;7770;52.158;5.372;2022-09-21T07:09:51;9.67;;;5.80;;
15340;SDS011;7770;52.158;5.372;2022-09-21T07:12:37;9.43;;;6.37;;
15340;SDS011;7770;52.158;5.372;2022-09-21T07:15:23;8.43;;;6.40;;
15340;SDS011;7770;52.158;5.372;2022-09-21T07:18:12;7.97;;;6.23;;
15340;SDS011;7770;52.158;5.372;2022-09-21T07:21:02;10.17;;;6.40;;
15340;SDS011;7770;52.158;5.372;2022-09-21T07:23:50;12.07;;;6.87;;
15340;SDS011;7770;52.158;5.372;2022-09-21T07:26:36;9.77;;;7.23;;
15340;SDS011;7770;52.158;5.372;2022-09-21T07:29:22;9.40;;;6.90;;
15340;SDS011;7770;52.158;5.372;2022-09-21T07:32:08;10.17;;;7.60;;
15340;SDS011;7770;52.158;5.372;2022-09-21T07:34:56;9.27;;;7.17;;
15340;SDS011;7770;52.158;5.372;2022-09-21T07:37:42;7.93;;;6.93;;
15340;SDS011;7770;52.158;5.372;2022-09-21T07:40:28;8.43;;;7.23;;
15340;SDS011;7770;52.158;5.372;2022-09-21T07:43:15;9.23;;;7.53;;
15340;SDS011;7770;52.158;5.372;2022-09-21T07:46:01;9.50;;;7.50;;
15340;SDS011;7770;52.158;5.372;2022-09-21T07:48:47;8.83;;;6.87;;
15340;SDS011;7770;52.158;5.372;2022-09-21T07:51:33;8.30;;;7.10;;
15340;SDS011;7770;52.158;5.372;2022-09-21T07:54:21;8.57;;;7.40;;
15340;SDS011;7770;52.158;5.372;2022-09-21T07:57:07;7.37;;;6.43;;
15340;SDS011;7770;52.158;5.372;2022-09-21T08:00:12;9.23;;;7.10;;
15340;SDS011;7770;52.158;5.372;2022-09-21T08:02:58;9.00;;;6.80;;
15340;SDS011;7770;52.158;5.372;2022-09-21T08:05:45;6.93;;;5.70;;
15340;SDS011;7770;52.158;5.372;2022-09-21T08:08:31;9.50;;;6.10;;
15340;SDS011;7770;52.158;5.372;2022-09-21T08:11:18;7.40;;;5.33;;
15340;SDS011;7770;52.158;5.372;2022-09-21T08:14:06;8.87;;;4.67;;
15340;SDS011;7770;52.158;5.372;2022-09-21T08:16:54;8.13;;;4.87;;
15340;SDS011;7770;52.158;5.372;2022-09-21T08:19:40;6.13;;;4.17;;
15340;SDS011;7770;52.158;5.372;2022-09-21T08:22:26;10.57;;;4.30;;
15340;SDS011;7770;52.158;5.372;2022-09-21T08:25:12;7.27;;;4.33;;
15340;SDS011;7770;52.158;5.372;2022-09-21T08:27:58;7.73;;;4.10;;
15340;SDS011;7770;52.158;5.372;2022-09-21T08:30:44;10.57;;;3.80;;
15340;SDS011;7770;52.158;5.372;2022-09-21T08:33:30;7.53;;;3.58;;
15340;SDS011;7770;52.158;5.372;2022-09-21T08:36:17;9.82;;;3.60;;
15340;SDS011;7770;52.158;5.372;2022-09-21T08:39:07;8.60;;;3.55;;
15340;SDS011;7770;52.158;5.372;2022-09-21T08:45:30;10.43;;;3.30;;
15340;SDS011;7770;52.158;5.372;2022-09-21T08:48:24;6.13;;;3.00;;
15340;SDS011;7770;52.158;5.372;2022-09-21T08:51:19;5.82;;;3.08;;
15340;SDS011;7770;52.158;5.372;2022-09-21T08:54:18;5.35;;;3.38;;
15340;SDS011;7770;52.158;5.372;2022-09-21T08:57:12;6.93;;;2.40;;
15340;SDS011;7770;52.158;5.372;2022-09-21T09:00:00;11.90;;;2.80;;
15340;SDS011;7770;52.158;5.372;2022-09-21T09:13:46;5.80;;;2.80;;
15340;SDS011;7770;52.158;5.372;2022-09-21T09:20:09;4.40;;;2.10;;
15340;SDS011;7770;52.158;5.372;2022-09-21T09:23:19;7.65;;;2.50;;
15340;SDS011;7770;52.158;5.372;2022-09-21T09:26:14;5.10;;;2.35;;
15340;SDS011;7770;52.158;5.372;2022-09-21T09:29:15;4.45;;;2.20;;
15340;SDS011;7770;52.158;5.372;2022-09-21T09:32:12;5.65;;;2.25;;
15340;SDS011;7770;52.158;5.372;2022-09-21T09:35:12;4.80;;;2.45;;
15340;SDS011;7770;52.158;5.372;2022-09-21T09:38:12;4.55;;;2.08;;
15340;SDS011;7770;52.158;5.372;2022-09-21T09:50:43;5.90;;;2.33;;
15340;SDS011;7770;52.158;5.372;2022-09-21T09:53:30;4.45;;;2.40;;
15340;SDS011;7770;52.158;5.372;2022-09-21T09:56:16;7.85;;;2.47;;
15340;SDS011;7770;52.158;5.372;2022-09-21T09:59:03;4.28;;;2.20;;
15340;SDS011;7770;52.158;5.372;2022-09-21T10:02:00;6.30;;;2.50;;
15340;SDS011;7770;52.158;5.372;2022-09-21T10:07:53;7.68;;;2.70;;
15340;SDS011;7770;52.158;5.372;2022-09-21T10:10:39;4.40;;;2.60;;
15340;SDS011;7770;52.158;5.372;2022-09-21T10:16:20;5.50;;;2.28;;
15340;SDS011;7770;52.158;5.372;2022-09-21T10:19:21;4.97;;;2.30;;
15340;SDS011;7770;52.158;5.372;2022-09-21T10:22:14;4.32;;;2.17;;
15340;SDS011;7770;52.158;5.372;2022-09-21T10:25:02;3.90;;;2.20;;
15340;SDS011;7770;52.158;5.372;2022-09-21T10:27:50;5.53;;;2.13;;
15340;SDS011;7770;52.158;5.372;2022-09-21T10:30:37;5.13;;;2.20;;
15340;SDS011;7770;52.158;5.372;2022-09-21T10:33:23;4.50;;;2.17;;
15340;SDS011;7770;52.158;5.372;2022-09-21T10:36:20;7.28;;;2.65;;
15340;SDS011;7770;52.158;5.372;2022-09-21T10:39:16;6.50;;;2.35;;
15340;SDS011;7770;52.158;5.372;2022-09-21T10:42:11;4.88;;;2.40;;
15340;SDS011;7770;52.158;5.372;2022-09-21T10:45:05;5.10;;;1.95;;
15340;SDS011;7770;52.158;5.372;2022-09-21T10:50:58;3.35;;;1.98;;
15340;SDS011;7770;52.158;5.372;2022-09-21T10:53:46;3.75;;;1.70;;
15340;SDS011;7770;52.158;5.372;2022-09-21T10:56:35;3.03;;;1.70;;
15340;SDS011;7770;52.158;5.372;2022-09-21T10:59:37;3.97;;;2.00;;
15340;SDS011;7770;52.158;5.372;2022-09-21T11:02:25;4.88;;;2.13;;
15340;SDS011;7770;52.158;5.372;2022-09-21T11:05:31;4.20;;;1.98;;
15340;SDS011;7770;52.158;5.372;2022-09-21T11:08:29;3.22;;;2.05;;
15340;SDS011;7770;52.158;5.372;2022-09-21T11:11:38;3.88;;;2.00;;
15340;SDS011;7770;52.158;5.372;2022-09-21T11:15:16;4.30;;;2.28;;
15340;SDS011;7770;52.158;5.372;2022-09-21T11:18:20;5.32;;;2.25;;
15340;SDS011;7770;52.158;5.372;2022-09-21T11:21:18;4.05;;;1.92;;
15340;SDS011;7770;52.158;5.372;2022-09-21T11:27:33;4.03;;;1.98;;
15340;SDS011;7770;52.158;5.372;2022-09-21T11:30:24;5.78;;;1.80;;
15340;SDS011;7770;52.158;5.372;2022-09-21T11:33:21;4.60;;;1.85;;
15340;SDS011;7770;52.158;5.372;2022-09-21T11:42:48;4.75;;;1.88;;
15340;SDS011;7770;52.158;5.372;2022-09-21T11:46:19;5.55;;;1.90;;
15340;SDS011;7770;52.158;5.372;2022-09-21T11:49:43;3.75;;;1.73;;
15340;SDS011;7770;52.158;5.372;2022-09-21T11:59:15;4.38;;;1.83;;
15340;SDS011;7770;52.158;5.372;2022-09-21T12:05:54;2.85;;;1.55;;
15340;SDS011;7770;52.158;5.372;2022-09-21T12:09:15;3.65;;;1.80;;
15340;SDS011;7770;52.158;5.372;2022-09-21T12:12:37;3.95;;;2.00;;
15340;SDS011;7770;52.158;5.372;2022-09-21T12:18:53;3.00;;;1.80;;
15340;SDS011;7770;52.158;5.372;2022-09-21T12:22:14;5.27;;;1.80;;
15340;SDS011;7770;52.158;5.372;2022-09-21T12:34:14;3.53;;;1.80;;
15340;SDS011;7770;52.158;5.372;2022-09-21T12:40:18;2.67;;;1.80;;
15340;SDS011;7770;52.158;5.372;2022-09-21T12:43:34;3.93;;;1.97;;
15340;SDS011;7770;52.158;5.372;2022-09-21T12:46:39;3.70;;;2.10;;
15340;SDS011;7770;52.158;5.372;2022-09-21T12:49:55;3.00;;;1.80;;
15340;SDS011;7770;52.158;5.372;2022-09-21T12:52:47;3.83;;;1.70;;
15340;SDS011;7770;52.158;5.372;2022-09-21T12:55:55;4.53;;;1.90;;
15340;SDS011;7770;52.158;5.372;2022-09-21T12:59:12;3.10;;;1.60;;
15340;SDS011;7770;52.158;5.372;2022-09-21T13:02:23;4.80;;;2.00;;
15340;SDS011;7770;52.158;5.372;2022-09-21T13:08:27;4.57;;;2.10;;
15340;SDS011;7770;52.158;5.372;2022-09-21T13:11:20;4.97;;;1.87;;
15340;SDS011;7770;52.158;5.372;2022-09-21T13:14:09;3.40;;;1.80;;
15340;SDS011;7770;52.158;5.372;2022-09-21T13:16:58;6.20;;;1.90;;
15340;SDS011;7770;52.158;5.372;2022-09-21T13:19:54;3.73;;;1.83;;
15340;SDS011;7770;52.158;5.372;2022-09-21T13:22:48;3.63;;;1.80;;
15340;SDS011;7770;52.158;5.372;2022-09-21T13:25:49;5.13;;;2.20;;
15340;SDS011;7770;52.158;5.372;2022-09-21T13:31:39;5.17;;;2.10;;
15340;SDS011;7770;52.158;5.372;2022-09-21T13:34:45;6.30;;;2.10;;
15340;SDS011;7770;52.158;5.372;2022-09-21T13:37:35;4.33;;;2.40;;
15340;SDS011;7770;52.158;5.372;2022-09-21T13:43:14;4.23;;;1.97;;
15340;SDS011;7770;52.158;5.372;2022-09-21T13:46:02;3.60;;;2.00;;
15340;SDS011;7770;52.158;5.372;2022-09-21T13:48:51;5.93;;;2.30;;
15340;SDS011;7770;52.158;5.372;2022-09-21T13:55:02;6.30;;;4.33;;
15340;SDS011;7770;52.158;5.372;2022-09-21T13:57:52;3.43;;;2.20;;
15340;SDS011;7770;52.158;5.372;2022-09-21T14:00:40;5.30;;;2.30;;
15340;SDS011;7770;52.158;5.372;2022-09-21T14:07:05;5.20;;;2.07;;
15340;SDS011;7770;52.158;5.372;2022-09-21T14:09:54;5.23;;;2.47;;
15340;SDS011;7770;52.158;5.372;2022-09-21T14:12:44;6.40;;;2.27;;
15340;SDS011;7770;52.158;5.372;2022-09-21T14:15:33;5.27;;;2.30;;
15340;SDS011;7770;52.158;5.372;2022-09-21T14:18:34;4.77;;;2.03;;
15340;SDS011;7770;52.158;5.372;2022-09-21T14:21:22;4.33;;;2.07;;
15340;SDS011;7770;52.158;5.372;2022-09-21T14:24:16;3.57;;;2.00;;
15340;SDS011;7770;52.158;5.372;2022-09-21T14:30:24;6.40;;;2.20;;
15340;SDS011;7770;52.158;5.372;2022-09-21T14:33:19;3.70;;;2.10;;
15340;SDS011;7770;52.158;5.372;2022-09-21T14:36:14;2.83;;;1.90;;
15340;SDS011;7770;52.158;5.372;2022-09-21T14:39:05;6.37;;;2.40;;
15340;SDS011;7770;52.158;5.372;2022-09-21T14:42:11;3.60;;;2.30;;
15340;SDS011;7770;52.158;5.372;2022-09-21T14:45:03;5.07;;;2.60;;
15340;SDS011;7770;52.158;5.372;2022-09-21T14:50:56;4.30;;;2.17;;
15340;SDS011;7770;52.158;5.372;2022-09-21T15:00:23;4.67;;;2.30;;
15340;SDS011;7770;52.158;5.372;2022-09-21T15:03:36;9.13;;;2.30;;
15340;SDS011;7770;52.158;5.372;2022-09-21T15:07:06;3.87;;;2.20;;
15340;SDS011;7770;52.158;5.372;2022-09-21T15:14:03;5.60;;;3.70;;
15340;SDS011;7770;52.158;5.372;2022-09-21T15:20:19;4.23;;;2.23;;
15340;SDS011;7770;52.158;5.372;2022-09-21T15:23:15;3.03;;;2.27;;
15340;SDS011;7770;52.158;5.372;2022-09-21T15:26:06;5.83;;;2.33;;
15340;SDS011;7770;52.158;5.372;2022-09-21T15:29:05;4.50;;;2.40;;
15340;SDS011;7770;52.158;5.372;2022-09-21T15:31:54;7.87;;;2.70;;
15340;SDS011;7770;52.158;5.372;2022-09-21T15:34:40;6.67;;;2.40;;
15340;SDS011;7770;52.158;5.372;2022-09-21T15:37:26;4.33;;;2.30;;
15340;SDS011;7770;52.158;5.372;2022-09-21T15:40:15;4.40;;;2.93;;
15340;SDS011;7770;52.158;5.372;2022-09-21T15:46:04;6.60;;;2.80;;
15340;SDS011;7770;52.158;5.372;2022-09-21T15:48:52;5.00;;;2.23;;
15340;SDS011;7770;52.158;5.372;2022-09-21T15:51:38;4.20;;;2.50;;
15340;SDS011;7770;52.158;5.372;2022-09-21T16:00:29;5.27;;;2.50;;
15340;SDS011;7770;52.158;5.372;2022-09-21T16:03:24;6.47;;;2.80;;
15340;SDS011;7770;52.158;5.372;2022-09-21T16:06:22;3.50;;;2.20;;
15340;SDS011;7770;52.158;5.372;2022-09-21T16:15:15;6.90;;;2.40;;
15340;SDS011;7770;52.158;5.372;2022-09-21T16:18:28;4.30;;;2.50;;
15340;SDS011;7770;52.158;5.372;2022-09-21T16:21:20;4.47;;;2.10;;
15340;SDS011;7770;52.158;5.372;2022-09-21T16:24:17;5.67;;;2.60;;
15340;SDS011;7770;52.158;5.372;2022-09-21T16:27:14;3.87;;;2.13;;
15340;SDS011;7770;52.158;5.372;2022-09-21T16:30:03;4.53;;;2.20;;
15340;SDS011;7770;52.158;5.372;2022-09-21T16:32:49;6.03;;;2.20;;
15340;SDS011;7770;52.158;5.372;2022-09-21T16:35:37;5.07;;;2.43;;
15340;SDS011;7770;52.158;5.372;2022-09-21T16:38:25;5.30;;;2.43;;
15340;SDS011;7770;52.158;5.372;2022-09-21T16:41:11;8.80;;;3.87;;
15340;SDS011;7770;52.158;5.372;2022-09-21T16:43:58;6.00;;;3.90;;
15340;SDS011;7770;52.158;5.372;2022-09-21T16:46:49;4.57;;;2.90;;
15340;SDS011;7770;52.158;5.372;2022-09-21T16:49:39;6.27;;;2.83;;
15340;SDS011;7770;52.158;5.372;2022-09-21T16:52:28;5.40;;;3.07;;
15340;SDS011;7770;52.158;5.372;2022-09-21T16:55:15;4.33;;;2.80;;
15340;SDS011;7770;52.158;5.372;2022-09-21T16:58:01;6.03;;;3.43;;
15340;SDS011;7770;52.158;5.372;2022-09-21T17:00:51;9.37;;;4.00;;
15340;SDS011;7770;52.158;5.372;2022-09-21T17:03:38;4.93;;;3.47;;
15340;SDS011;7770;52.158;5.372;2022-09-21T17:06:25;7.17;;;3.83;;
15340;SDS011;7770;52.158;5.372;2022-09-21T17:09:44;7.90;;;5.30;;
15340;SDS011;7770;52.158;5.372;2022-09-21T17:12:27;7.77;;;4.70;;
15340;SDS011;7770;52.158;5.372;2022-09-21T17:15:13;8.13;;;4.40;;
15340;SDS011;7770;52.158;5.372;2022-09-21T17:17:59;13.47;;;10.40;;
15340;SDS011;7770;52.158;5.372;2022-09-21T17:20:46;27.80;;;22.60;;
15340;SDS011;7770;52.158;5.372;2022-09-21T17:23:33;27.77;;;22.63;;
15340;SDS011;7770;52.158;5.372;2022-09-21T17:26:20;21.40;;;15.03;;
15340;SDS011;7770;52.158;5.372;2022-09-21T17:29:16;19.77;;;16.47;;
15340;SDS011;7770;52.158;5.372;2022-09-21T17:32:15;21.37;;;15.90;;
15340;SDS011;7770;52.158;5.372;2022-09-21T17:38:10;12.80;;;9.40;;
15340;SDS011;7770;52.158;5.372;2022-09-21T17:40:57;10.57;;;7.50;;
15340;SDS011;7770;52.158;5.372;2022-09-21T17:49:47;12.87;;;8.40;;
15340;SDS011;7770;52.158;5.372;2022-09-21T17:52:34;10.97;;;8.00;;
15340;SDS011;7770;52.158;5.372;2022-09-21T17:55:43;12.67;;;8.77;;
15340;SDS011;7770;52.158;5.372;2022-09-21T17:58:47;10.23;;;9.07;;
15340;SDS011;7770;52.158;5.372;2022-09-21T18:01:48;11.03;;;9.10;;
15340;SDS011;7770;52.158;5.372;2022-09-21T18:04:34;12.83;;;9.90;;
15340;SDS011;7770;52.158;5.372;2022-09-21T18:07:21;13.43;;;10.57;;
15340;SDS011;7770;52.158;5.372;2022-09-21T18:10:10;14.27;;;10.00;;
15340;SDS011;7770;52.158;5.372;2022-09-21T18:25:43;13.40;;;10.80;;
15340;SDS011;7770;52.158;5.372;2022-09-21T18:38:24;16.73;;;11.10;;
15340;SDS011;7770;52.158;5.372;2022-09-21T18:41:28;13.83;;;10.50;;
15340;SDS011;7770;52.158;5.372;2022-09-21T18:44:49;14.30;;;10.70;;
15340;SDS011;7770;52.158;5.372;2022-09-21T18:54:19;13.83;;;10.50;;
15340;SDS011;7770;52.158;5.372;2022-09-21T18:57:12;15.10;;;10.50;;
15340;SDS011;7770;52.158;5.372;2022-09-21T18:59:59;12.37;;;9.90;;
15340;SDS011;7770;52.158;5.372;2022-09-21T19:02:45;14.07;;;10.20;;
15340;SDS011;7770;52.158;5.372;2022-09-21T19:05:32;13.83;;;10.67;;
15340;SDS011;7770;52.158;5.372;2022-09-21T19:08:43;11.40;;;10.20;;
15340;SDS011;7770;52.158;5.372;2022-09-21T19:12:04;12.10;;;9.73;;
15340;SDS011;7770;52.158;5.372;2022-09-21T19:21:46;13.97;;;8.77;;
15340;SDS011;7770;52.158;5.372;2022-09-21T19:28:20;15.60;;;9.50;;
15340;SDS011;7770;52.158;5.372;2022-09-21T19:31:19;15.50;;;9.63;;
15340;SDS011;7770;52.158;5.372;2022-09-21T19:34:15;15.10;;;10.53;;
15340;SDS011;7770;52.158;5.372;2022-09-21T19:37:03;17.00;;;11.10;;
15340;SDS011;7770;52.158;5.372;2022-09-21T19:39:49;13.23;;;10.57;;
15340;SDS011;7770;52.158;5.372;2022-09-21T19:42:49;13.87;;;10.10;;
15340;SDS011;7770;52.158;5.372;2022-09-21T19:49:49;9.87;;;8.97;;
15340;SDS011;7770;52.158;5.372;2022-09-21T19:52:38;11.10;;;9.80;;
15340;SDS011;7770;52.158;5.372;2022-09-21T19:55:25;12.03;;;9.40;;
15340;SDS011;7770;52.158;5.372;2022-09-21T19:58:30;11.60;;;9.60;;
15340;SDS011;7770;52.158;5.372;2022-09-21T20:01:35;11.70;;;9.03;;
15340;SDS011;7770;52.158;5.372;2022-09-21T20:04:30;13.57;;;9.10;;
15340;SDS011;7770;52.158;5.372;2022-09-21T20:14:24;9.43;;;8.13;;
15340;SDS011;7770;52.158;5.372;2022-09-21T20:17:19;10.63;;;9.20;;
15340;SDS011;7770;52.158;5.372;2022-09-21T20:23:04;12.00;;;8.73;;
15340;SDS011;7770;52.158;5.372;2022-09-21T20:25:55;12.60;;;8.90;;
15340;SDS011;7770;52.158;5.372;2022-09-21T20:28:45;15.10;;;9.60;;
15340;SDS011;7770;52.158;5.372;2022-09-21T20:31:31;15.83;;;10.17;;
15340;SDS011;7770;52.158;5.372;2022-09-21T20:34:17;12.63;;;10.30;;
15340;SDS011;7770;52.158;5.372;2022-09-21T20:37:05;13.73;;;10.43;;
15340;SDS011;7770;52.158;5.372;2022-09-21T20:39:56;11.77;;;9.83;;
15340;SDS011;7770;52.158;5.372;2022-09-21T20:42:42;12.73;;;10.00;;
15340;SDS011;7770;52.158;5.372;2022-09-21T20:45:29;13.60;;;10.57;;
15340;SDS011;7770;52.158;5.372;2022-09-21T20:48:16;12.93;;;10.10;;
15340;SDS011;7770;52.158;5.372;2022-09-21T20:51:02;14.67;;;9.83;;
15340;SDS011;7770;52.158;5.372;2022-09-21T20:53:50;11.37;;;9.43;;
15340;SDS011;7770;52.158;5.372;2022-09-21T20:56:36;12.27;;;9.83;;
15340;SDS011;7770;52.158;5.372;2022-09-21T20:59:22;11.80;;;9.63;;
15340;SDS011;7770;52.158;5.372;2022-09-21T21:02:08;12.50;;;10.93;;
15340;SDS011;7770;52.158;5.372;2022-09-21T21:04:58;13.37;;;10.90;;
15340;SDS011;7770;52.158;5.372;2022-09-21T21:07:44;14.87;;;11.00;;
15340;SDS011;7770;52.158;5.372;2022-09-21T21:10:30;13.87;;;11.10;;
15340;SDS011;7770;52.158;5.372;2022-09-21T21:13:17;12.60;;;11.27;;
15340;SDS011;7770;52.158;5.372;2022-09-21T21:16:03;14.63;;;11.23;;
15340;SDS011;7770;52.158;5.372;2022-09-21T21:18:49;15.20;;;11.33;;